West Chenango, New York
Current Conditions -  °F | °C
As of 3:53 PM on Thursday 27 Nov 2014 (Local Time) from KBGM Reporting Station
Light Snow Light Snow  
Wind Chill: 19°   Ceiling: 900
Heat Index: 27°   Visibility: 8mi
Dew Point: 23°   Wind: 7mph
Humidity: 85%   Direction: 310°NW
Pressure: 29.97"   Gusts: NA
Location:  42.1759°N, 75.9402°W
Report Text: KBGM 272053Z 31006KT 8SM -SN OVC009 M03/M05 A2997 RMK AO2 SNB51 SLP166 P0000 60000 T10281050 53010 $
Loading
Personal Weather Stations






























Interactive Weather Map New forecast layout! Learn more

10-Day Weather Forecast

Advertisements
Track Severe Weather on mobile